createdAt,value
2023-03-31T00:00:25.488Z,13.62
2023-03-31T00:02:54.792Z,13.64
2023-03-31T00:05:24.784Z,13.45
2023-03-31T00:08:01.104Z,13.56
2023-03-31T00:10:33.714Z,13.58
2023-03-31T00:13:02.199Z,13.72
2023-03-31T00:15:29.398Z,13.44
2023-03-31T00:18:00.577Z,13.67
2023-03-31T00:20:28.379Z,13.56
2023-03-31T00:22:57.842Z,13.23
2023-03-31T00:25:25.512Z,13.13
2023-03-31T00:27:53.052Z,13.43
2023-03-31T00:30:20.535Z,13.40
2023-03-31T00:32:47.856Z,13.39
2023-03-31T00:35:15.175Z,13.34
2023-03-31T00:37:43.402Z,13.29
2023-03-31T00:40:12.574Z,13.26
2023-03-31T00:42:43.850Z,13.50
2023-03-31T00:45:14.047Z,13.27
2023-03-31T00:47:41.831Z,13.37
2023-03-31T00:50:19.207Z,13.46
2023-03-31T00:52:48.970Z,13.31
2023-03-31T00:55:18.431Z,13.58
2023-03-31T00:57:46.846Z,13.70
2023-03-31T01:00:20.820Z,13.39
2023-03-31T01:02:53.237Z,13.40
2023-03-31T01:05:24.020Z,13.50
2023-03-31T01:07:54.014Z,13.50
2023-03-31T01:10:21.945Z,13.53
2023-03-31T01:12:52.817Z,13.48
2023-03-31T01:15:20.406Z,13.57
2023-03-31T01:17:50.478Z,13.62
2023-03-31T01:20:27.240Z,13.49
2023-03-31T01:23:14.770Z,13.64
2023-03-31T01:26:21.941Z,13.66
2023-03-31T01:29:02.092Z,13.78
2023-03-31T01:31:56.260Z,13.72
2023-03-31T01:34:45.793Z,13.71
2023-03-31T01:37:51.869Z,13.63
2023-03-31T01:40:35.680Z,13.64
2023-03-31T01:43:09.585Z,13.42
2023-03-31T01:45:57.775Z,13.41
2023-03-31T01:49:02.639Z,13.74
2023-03-31T01:51:34.248Z,13.89
2023-03-31T01:54:06.198Z,13.75
2023-03-31T01:56:47.686Z,13.73
2023-03-31T01:59:18.678Z,13.61
2023-03-31T02:02:13.862Z,13.51
2023-03-31T02:05:01.686Z,13.55
2023-03-31T02:07:39.549Z,13.50
2023-03-31T02:10:10.285Z,13.68
2023-03-31T02:12:40.175Z,13.91
2023-03-31T02:15:11.099Z,13.90
2023-03-31T02:17:40.289Z,13.98
2023-03-31T02:20:15.378Z,13.89
2023-03-31T02:22:46.014Z,14.00
2023-03-31T02:25:17.610Z,14.00
2023-03-31T02:27:50.180Z,13.85
2023-03-31T02:30:17.419Z,13.91
2023-03-31T02:32:46.764Z,13.73
2023-03-31T02:35:19.240Z,13.81
2023-03-31T02:37:46.926Z,13.87
2023-03-31T02:40:20.775Z,13.79
2023-03-31T02:42:49.616Z,13.79
2023-03-31T02:45:39.960Z,13.98
2023-03-31T02:48:24.349Z,14.06
2023-03-31T02:51:01.862Z,13.82
2023-03-31T02:53:54.216Z,13.89
2023-03-31T02:56:48.342Z,13.84
2023-03-31T02:59:24.579Z,13.90
2023-03-31T03:01:57.886Z,13.98
2023-03-31T03:04:34.175Z,13.76
2023-03-31T03:07:39.683Z,14.06
2023-03-31T03:10:10.427Z,13.68
2023-03-31T03:12:40.635Z,13.69
2023-03-31T03:15:10.407Z,13.93
2023-03-31T03:17:41.490Z,13.76
2023-03-31T03:20:09.959Z,13.79
2023-03-31T03:22:38.844Z,13.70
2023-03-31T03:25:11.662Z,13.71
2023-03-31T03:27:39.629Z,13.73
2023-03-31T03:30:09.423Z,13.57
2023-03-31T03:32:37.992Z,13.62
2023-03-31T03:35:06.687Z,13.70
2023-03-31T03:37:35.272Z,13.83
2023-03-31T03:40:03.899Z,13.90
2023-03-31T03:42:31.191Z,13.92
2023-03-31T03:44:58.518Z,13.73
2023-03-31T03:47:25.962Z,13.75
2023-03-31T03:49:53.250Z,13.67
2023-03-31T03:52:21.413Z,13.79
2023-03-31T03:54:48.662Z,13.85
2023-03-31T03:57:16.721Z,13.63
2023-03-31T03:59:45.565Z,13.67
2023-03-31T04:02:12.939Z,13.68
2023-03-31T04:04:40.325Z,13.65
2023-03-31T04:07:07.642Z,13.67
2023-03-31T04:09:34.962Z,13.46
2023-03-31T04:12:02.330Z,13.67
2023-03-31T04:14:29.668Z,13.69
2023-03-31T04:16:58.602Z,13.82
2023-03-31T04:19:27.551Z,13.92
2023-03-31T04:22:03.144Z,13.82
2023-03-31T04:24:33.030Z,13.91
2023-03-31T04:27:01.197Z,13.87
2023-03-31T04:29:28.544Z,13.93
2023-03-31T04:31:59.282Z,13.90
2023-03-31T04:34:35.044Z,13.60
2023-03-31T04:37:03.558Z,13.76
2023-03-31T04:39:31.090Z,13.79
2023-03-31T04:41:59.771Z,13.77
2023-03-31T04:44:35.289Z,13.82
2023-03-31T04:47:03.390Z,13.83
2023-03-31T04:49:34.326Z,13.71
2023-03-31T04:52:01.740Z,13.88
2023-03-31T04:54:29.009Z,13.91
2023-03-31T04:56:56.318Z,13.68
2023-03-31T04:59:23.614Z,13.76
2023-03-31T05:01:50.902Z,13.75
2023-03-31T05:04:18.240Z,13.80
2023-03-31T05:06:45.585Z,13.69
2023-03-31T05:09:12.869Z,13.70
2023-03-31T05:11:41.051Z,13.89
2023-03-31T05:14:11.391Z,13.91
2023-03-31T05:16:38.769Z,13.63
2023-03-31T05:19:06.235Z,13.78
2023-03-31T05:21:33.532Z,13.80
2023-03-31T05:24:00.794Z,13.83
2023-03-31T05:26:28.049Z,13.98
2023-03-31T05:28:55.386Z,13.88
2023-03-31T05:31:23.244Z,14.17
2023-03-31T05:33:50.716Z,13.95
2023-03-31T05:36:18.455Z,13.87
2023-03-31T05:38:47.722Z,13.78
2023-03-31T05:41:17.070Z,13.80
2023-03-31T05:43:44.527Z,13.80
2023-03-31T05:46:12.072Z,13.71
2023-03-31T05:48:39.501Z,14.01
2023-03-31T05:51:06.794Z,13.85
2023-03-31T05:53:34.171Z,13.73
2023-03-31T05:56:04.361Z,13.70
2023-03-31T05:58:31.777Z,14.02
2023-03-31T06:01:08.349Z,13.96
2023-03-31T06:03:37.725Z,14.02
2023-03-31T06:06:06.313Z,13.64
2023-03-31T06:08:34.437Z,13.78
2023-03-31T06:11:08.281Z,13.75
2023-03-31T06:13:36.940Z,13.75
2023-03-31T06:16:04.311Z,13.76
2023-03-31T06:18:33.614Z,13.72
2023-03-31T06:21:01.267Z,13.72
2023-03-31T06:23:28.777Z,14.05
2023-03-31T06:26:04.630Z,14.16
2023-03-31T06:28:31.959Z,13.99
2023-03-31T06:31:05.546Z,14.03
2023-03-31T06:33:34.024Z,14.07
2023-03-31T06:36:04.303Z,14.01
2023-03-31T06:38:32.604Z,14.08
2023-03-31T06:41:00.587Z,14.25
2023-03-31T06:43:27.895Z,14.16
2023-03-31T06:45:56.235Z,14.18
2023-03-31T06:48:25.322Z,14.27
2023-03-31T06:50:58.924Z,14.39
2023-03-31T06:53:26.472Z,14.68
2023-03-31T06:55:53.850Z,14.60
2023-03-31T06:58:21.466Z,14.93
2023-03-31T07:00:49.680Z,15.13
2023-03-31T07:03:19.055Z,15.13
2023-03-31T07:05:51.028Z,15.21
2023-03-31T07:08:18.975Z,14.80
2023-03-31T07:10:48.765Z,15.22
2023-03-31T07:13:16.941Z,15.20
2023-03-31T07:15:44.924Z,14.82
2023-03-31T07:18:12.755Z,14.59
2023-03-31T07:20:39.935Z,14.44
2023-03-31T07:23:08.620Z,14.55
2023-03-31T07:25:36.465Z,14.40
2023-03-31T07:28:05.166Z,14.22
2023-03-31T07:30:33.165Z,14.33
2023-03-31T07:33:01.811Z,14.53
2023-03-31T07:35:31.391Z,14.64
2023-03-31T07:37:59.087Z,14.40
2023-03-31T07:40:28.519Z,14.28
2023-03-31T07:42:55.820Z,14.29
2023-03-31T07:45:25.317Z,14.58
2023-03-31T07:47:53.010Z,14.39
2023-03-31T07:50:21.351Z,14.54
2023-03-31T07:52:51.955Z,14.72
2023-03-31T07:55:20.160Z,14.84
2023-03-31T07:57:47.722Z,14.97
2023-03-31T08:00:16.260Z,15.27
2023-03-31T08:02:44.042Z,15.03
2023-03-31T08:05:13.167Z,14.92
2023-03-31T08:07:42.237Z,15.06
2023-03-31T08:10:12.730Z,14.90
2023-03-31T08:12:39.976Z,15.11
2023-03-31T08:15:08.117Z,15.13
2023-03-31T08:17:35.757Z,14.83
2023-03-31T08:20:07.954Z,14.74
2023-03-31T08:22:37.012Z,14.87
2023-03-31T08:25:05.894Z,15.08
2023-03-31T08:27:34.678Z,15.02
2023-03-31T08:30:04.546Z,15.24
2023-03-31T08:32:32.994Z,15.06
2023-03-31T08:35:00.729Z,15.03
2023-03-31T08:37:28.413Z,14.96
2023-03-31T08:39:56.092Z,15.06
2023-03-31T08:42:56.302Z,15.19
2023-03-31T08:45:36.718Z,15.17
2023-03-31T08:48:08.052Z,15.26
2023-03-31T08:50:38.253Z,15.18
2023-03-31T08:53:13.964Z,15.07
2023-03-31T08:55:47.650Z,15.26
2023-03-31T08:58:28.128Z,15.19
2023-03-31T09:00:58.125Z,15.24
2023-03-31T09:03:31.831Z,15.25
2023-03-31T09:06:07.283Z,15.01
2023-03-31T09:08:37.339Z,15.20
2023-03-31T09:11:14.917Z,15.41
2023-03-31T09:13:50.872Z,15.64
2023-03-31T09:16:22.755Z,15.63
2023-03-31T09:18:50.916Z,15.57
2023-03-31T09:21:50.076Z,15.91
2023-03-31T09:24:24.222Z,15.79
2023-03-31T09:27:01.453Z,15.92
2023-03-31T09:29:34.708Z,15.83
2023-03-31T09:32:07.456Z,15.41
2023-03-31T09:34:34.928Z,15.36
2023-03-31T09:37:02.143Z,15.17
2023-03-31T09:39:29.372Z,15.29
2023-03-31T09:41:56.681Z,15.36
2023-03-31T09:44:42.373Z,15.65
2023-03-31T09:47:25.756Z,15.82
2023-03-31T09:49:54.045Z,15.90
2023-03-31T09:52:27.996Z,15.82
2023-03-31T09:54:56.937Z,15.65
2023-03-31T09:57:31.995Z,15.90
2023-03-31T10:00:16.605Z,16.19
2023-03-31T10:02:49.374Z,16.34
2023-03-31T10:05:30.556Z,16.21
2023-03-31T10:08:12.924Z,16.04
2023-03-31T10:10:45.491Z,16.18
2023-03-31T10:13:16.985Z,15.95
2023-03-31T10:15:44.808Z,15.87
2023-03-31T10:18:17.176Z,15.61
2023-03-31T10:20:50.620Z,15.58
2023-03-31T10:23:29.575Z,15.87
2023-03-31T10:25:57.101Z,15.79
2023-03-31T10:28:24.525Z,16.16
2023-03-31T10:31:04.191Z,16.19
2023-03-31T10:33:34.730Z,15.91
2023-03-31T10:36:09.278Z,16.07
2023-03-31T10:38:45.195Z,16.25
2023-03-31T10:41:12.807Z,16.32
2023-03-31T10:43:48.689Z,15.75
2023-03-31T10:46:15.979Z,16.02
2023-03-31T10:48:45.067Z,16.01
2023-03-31T10:51:28.698Z,15.81
2023-03-31T10:54:00.992Z,15.79
2023-03-31T10:56:43.811Z,15.95
2023-03-31T10:59:33.017Z,16.14
2023-03-31T11:02:23.384Z,16.19
2023-03-31T11:04:53.670Z,16.09
2023-03-31T11:07:29.913Z,16.12
2023-03-31T11:09:57.776Z,16.24
2023-03-31T11:12:31.229Z,16.29
2023-03-31T11:15:31.443Z,16.37
2023-03-31T11:17:58.668Z,16.35
2023-03-31T11:20:53.766Z,16.40
2023-03-31T11:23:40.009Z,16.26
2023-03-31T11:26:38.348Z,16.00
2023-03-31T11:29:23.138Z,15.98
2023-03-31T11:31:53.267Z,16.31
2023-03-31T11:34:39.531Z,16.14
2023-03-31T11:37:52.966Z,16.19
2023-03-31T11:40:51.353Z,16.41
2023-03-31T11:43:33.540Z,16.35
2023-03-31T11:46:05.130Z,16.39
2023-03-31T11:48:32.478Z,16.18
2023-03-31T11:51:02.008Z,16.25
2023-03-31T11:53:34.319Z,16.59
2023-03-31T11:56:02.641Z,16.91
2023-03-31T11:58:35.926Z,16.82
2023-03-31T12:01:17.042Z,16.64
2023-03-31T12:03:54.629Z,16.80
2023-03-31T12:06:24.478Z,16.97
2023-03-31T12:09:05.713Z,16.56
2023-03-31T12:11:43.404Z,16.33
2023-03-31T12:14:21.388Z,16.00
2023-03-31T12:16:58.444Z,15.98
2023-03-31T12:19:28.832Z,16.26
2023-03-31T12:22:20.585Z,15.95
2023-03-31T12:24:48.478Z,16.14
2023-03-31T12:27:29.549Z,15.99
2023-03-31T12:30:13.220Z,16.23
2023-03-31T12:32:43.742Z,16.19
2023-03-31T12:35:16.469Z,16.53
2023-03-31T12:38:11.682Z,16.89
2023-03-31T12:41:03.771Z,16.37
2023-03-31T12:43:55.125Z,16.03
2023-03-31T12:46:34.928Z,16.14
2023-03-31T12:49:19.220Z,16.35
2023-03-31T12:52:04.387Z,16.40
2023-03-31T12:54:44.525Z,16.54
2023-03-31T12:57:11.753Z,16.62
2023-03-31T12:59:41.489Z,16.91
2023-03-31T13:02:17.434Z,16.45
2023-03-31T13:04:44.922Z,16.22
2023-03-31T13:07:29.128Z,16.15
2023-03-31T13:09:58.578Z,16.33
2023-03-31T13:12:28.252Z,16.42
2023-03-31T13:15:01.521Z,16.26
2023-03-31T13:17:30.059Z,16.00
2023-03-31T13:20:16.050Z,15.88
2023-03-31T13:22:48.493Z,16.18
2023-03-31T13:25:31.358Z,16.16
2023-03-31T13:28:09.255Z,16.16
2023-03-31T13:30:36.844Z,16.23
2023-03-31T13:33:26.965Z,16.57
2023-03-31T13:35:57.550Z,16.42
2023-03-31T13:38:42.159Z,16.59
2023-03-31T13:41:19.123Z,16.60
2023-03-31T13:43:55.062Z,16.49
2023-03-31T13:46:30.622Z,16.28
2023-03-31T13:49:12.051Z,15.74
2023-03-31T13:51:49.073Z,15.65
2023-03-31T13:54:36.353Z,15.72
2023-03-31T13:57:29.500Z,15.52
2023-03-31T14:00:14.343Z,15.37
2023-03-31T14:03:07.755Z,14.63
2023-03-31T14:05:53.880Z,14.31
2023-03-31T14:08:24.135Z,14.06
2023-03-31T14:10:51.264Z,13.99
2023-03-31T14:13:19.767Z,13.68
2023-03-31T14:15:58.612Z,13.90
2023-03-31T14:18:29.702Z,14.41
2023-03-31T14:21:06.451Z,14.53
2023-03-31T14:24:05.546Z,14.13
2023-03-31T14:26:56.502Z,13.98
2023-03-31T14:29:53.138Z,14.26
2023-03-31T14:32:29.702Z,14.29
2023-03-31T14:35:08.435Z,13.99
2023-03-31T14:37:35.848Z,14.21
2023-03-31T14:40:04.812Z,14.36
2023-03-31T14:42:39.556Z,14.41
2023-03-31T14:45:17.047Z,14.63
2023-03-31T14:48:04.674Z,14.21
2023-03-31T14:50:34.910Z,14.30
2023-03-31T14:53:02.357Z,14.33
2023-03-31T14:55:44.187Z,14.28
2023-03-31T14:58:26.140Z,14.18
2023-03-31T15:00:54.159Z,13.83
2023-03-31T15:03:21.601Z,13.63
2023-03-31T15:05:50.278Z,13.53
2023-03-31T15:08:20.766Z,13.22
2023-03-31T15:11:02.434Z,13.41
2023-03-31T15:14:03.373Z,13.70
2023-03-31T15:16:44.465Z,13.86
2023-03-31T15:19:21.400Z,13.96
2023-03-31T15:22:04.670Z,13.89
2023-03-31T15:24:32.046Z,14.05
2023-03-31T15:27:10.026Z,13.91
2023-03-31T15:30:07.061Z,14.08
2023-03-31T15:32:39.346Z,14.44
2023-03-31T15:35:21.140Z,14.20
2023-03-31T15:37:58.299Z,13.98
2023-03-31T15:40:28.409Z,13.92
2023-03-31T15:43:24.572Z,13.74
2023-03-31T15:45:54.398Z,13.93
2023-03-31T15:48:36.469Z,14.10
2023-03-31T15:51:17.907Z,13.80
2023-03-31T15:53:47.228Z,14.01
2023-03-31T15:56:32.332Z,14.25
2023-03-31T15:59:07.007Z,14.25
2023-03-31T16:01:45.835Z,14.07
2023-03-31T16:04:15.203Z,14.44
2023-03-31T16:06:55.517Z,14.33
2023-03-31T16:09:26.367Z,14.44
2023-03-31T16:11:58.527Z,14.58
2023-03-31T16:14:38.678Z,14.37
2023-03-31T16:17:06.940Z,14.21
2023-03-31T16:19:51.189Z,14.46
2023-03-31T16:22:21.629Z,14.61
2023-03-31T16:24:49.237Z,14.47
2023-03-31T16:27:16.490Z,14.56
2023-03-31T16:29:43.753Z,14.57
2023-03-31T16:32:15.452Z,14.82
2023-03-31T16:34:56.800Z,14.70
2023-03-31T16:37:24.598Z,14.52
2023-03-31T16:39:51.896Z,14.75
2023-03-31T16:42:19.806Z,14.21
2023-03-31T16:44:52.894Z,14.14
2023-03-31T16:47:35.205Z,14.04
2023-03-31T16:50:07.332Z,13.81
2023-03-31T16:52:36.042Z,13.74
2023-03-31T16:55:03.374Z,14.03
2023-03-31T16:57:30.754Z,13.92
2023-03-31T16:59:59.037Z,14.02
2023-03-31T17:02:26.754Z,13.97
2023-03-31T17:04:56.566Z,13.82
2023-03-31T17:07:27.039Z,13.76
2023-03-31T17:09:54.261Z,13.95
2023-03-31T17:12:21.574Z,14.03
2023-03-31T17:14:49.057Z,13.99
2023-03-31T17:17:18.013Z,14.08
2023-03-31T17:19:45.488Z,14.13
2023-03-31T17:22:13.134Z,14.07
2023-03-31T17:24:40.803Z,13.89
2023-03-31T17:27:08.116Z,13.78
2023-03-31T17:29:35.477Z,13.74
2023-03-31T17:32:02.956Z,13.91
2023-03-31T17:34:31.775Z,13.95
2023-03-31T17:36:59.801Z,14.17
2023-03-31T17:39:27.701Z,14.32
2023-03-31T17:41:55.051Z,14.38
2023-03-31T17:44:22.626Z,14.30
2023-03-31T17:46:50.004Z,14.15
2023-03-31T17:49:17.643Z,13.98
2023-03-31T17:51:49.761Z,13.76
2023-03-31T17:54:17.053Z,13.66
2023-03-31T17:56:45.449Z,13.54
2023-03-31T17:59:12.765Z,13.83
2023-03-31T18:01:40.167Z,13.88
2023-03-31T18:04:08.246Z,13.71
2023-03-31T18:06:35.511Z,13.80
2023-03-31T18:09:02.913Z,13.82
2023-03-31T18:11:31.085Z,13.90
2023-03-31T18:14:01.978Z,13.74
2023-03-31T18:16:31.054Z,13.76
2023-03-31T18:18:58.306Z,13.87
2023-03-31T18:21:25.813Z,13.67
2023-03-31T18:23:55.088Z,13.82
2023-03-31T18:26:24.100Z,13.82
2023-03-31T18:28:52.610Z,13.67
2023-03-31T18:31:22.378Z,13.56
2023-03-31T18:33:50.002Z,13.40
2023-03-31T18:36:18.978Z,13.64
2023-03-31T18:38:47.956Z,13.66
2023-03-31T18:41:16.110Z,13.57
2023-03-31T18:43:43.512Z,13.56
2023-03-31T18:46:11.463Z,13.51
2023-03-31T18:48:39.230Z,13.41
2023-03-31T18:51:06.890Z,13.32
2023-03-31T18:53:34.192Z,13.49
2023-03-31T18:56:01.660Z,13.50
2023-03-31T18:58:30.167Z,13.36
2023-03-31T19:00:58.216Z,13.58
2023-03-31T19:03:29.191Z,13.37
2023-03-31T19:06:05.237Z,13.26
2023-03-31T19:08:32.773Z,13.38
2023-03-31T19:11:18.196Z,13.28
2023-03-31T19:13:45.694Z,13.07
2023-03-31T19:16:13.478Z,13.10
2023-03-31T19:18:41.121Z,13.48
2023-03-31T19:21:08.423Z,13.27
2023-03-31T19:23:35.731Z,13.16
2023-03-31T19:26:03.244Z,13.17
2023-03-31T19:28:30.654Z,13.20
2023-03-31T19:30:58.594Z,13.27
2023-03-31T19:33:26.728Z,13.40
2023-03-31T19:35:54.227Z,13.55
2023-03-31T19:38:22.003Z,13.29
2023-03-31T19:40:49.608Z,13.33
2023-03-31T19:43:21.129Z,13.54
2023-03-31T19:45:48.924Z,13.52
2023-03-31T19:48:16.690Z,13.65
2023-03-31T19:50:51.230Z,13.72
2023-03-31T19:53:19.536Z,13.62
2023-03-31T19:56:03.642Z,13.64
2023-03-31T19:58:33.154Z,13.56
2023-03-31T20:01:00.396Z,13.52
2023-03-31T20:03:28.209Z,13.14
2023-03-31T20:06:07.258Z,13.20
2023-03-31T20:08:39.444Z,13.22
2023-03-31T20:11:09.783Z,13.08
2023-03-31T20:13:38.297Z,13.29
2023-03-31T20:16:10.765Z,13.50
2023-03-31T20:18:38.680Z,13.44
2023-03-31T20:21:11.536Z,13.57
2023-03-31T20:23:39.977Z,13.49
2023-03-31T20:26:09.031Z,13.36
2023-03-31T20:28:37.862Z,13.32
2023-03-31T20:31:13.294Z,13.14
2023-03-31T20:33:42.048Z,13.21
2023-03-31T20:36:12.085Z,13.18
2023-03-31T20:38:41.309Z,13.03
2023-03-31T20:41:09.582Z,12.99
2023-03-31T20:43:37.275Z,13.01
2023-03-31T20:46:06.533Z,12.98
2023-03-31T20:48:46.574Z,12.77
2023-03-31T20:51:16.425Z,12.42
2023-03-31T20:53:45.659Z,12.60
2023-03-31T20:56:15.201Z,12.89
2023-03-31T20:58:44.092Z,12.64
2023-03-31T21:01:13.081Z,12.69
2023-03-31T21:03:41.270Z,12.71
2023-03-31T21:06:11.963Z,12.48
2023-03-31T21:08:40.769Z,12.48
2023-03-31T21:11:08.596Z,12.37
2023-03-31T21:13:36.082Z,12.48
2023-03-31T21:16:04.592Z,12.51
2023-03-31T21:18:33.419Z,12.57
2023-03-31T21:21:03.275Z,12.71
2023-03-31T21:23:30.920Z,12.91
2023-03-31T21:26:00.604Z,12.77
2023-03-31T21:28:30.281Z,12.85
2023-03-31T21:31:12.545Z,12.67
2023-03-31T21:33:41.646Z,12.48
2023-03-31T21:36:14.756Z,12.58
2023-03-31T21:38:42.556Z,12.57
2023-03-31T21:41:12.561Z,12.75
2023-03-31T21:43:40.285Z,12.75
2023-03-31T21:46:08.002Z,12.94
2023-03-31T21:48:35.584Z,12.78
2023-03-31T21:51:03.596Z,12.71
2023-03-31T21:53:31.502Z,12.78
2023-03-31T21:55:59.276Z,12.69
2023-03-31T21:58:29.128Z,12.66
2023-03-31T22:00:58.011Z,12.58
2023-03-31T22:03:28.663Z,12.30
2023-03-31T22:05:57.453Z,12.24
2023-03-31T22:08:26.946Z,12.45
2023-03-31T22:10:55.567Z,12.19
2023-03-31T22:13:24.156Z,12.21
2023-03-31T22:15:51.517Z,12.50
2023-03-31T22:18:19.468Z,12.17
2023-03-31T22:20:46.890Z,12.24
2023-03-31T22:23:15.027Z,12.04
2023-03-31T22:25:42.584Z,12.12
2023-03-31T22:28:10.374Z,12.16
2023-03-31T22:30:37.813Z,12.14
2023-03-31T22:33:05.588Z,12.34
2023-03-31T22:35:33.188Z,12.12
2023-03-31T22:38:01.540Z,12.14
2023-03-31T22:40:30.134Z,12.09
2023-03-31T22:42:58.424Z,12.11
2023-03-31T22:45:25.778Z,11.87
2023-03-31T22:47:53.009Z,11.85
2023-03-31T22:50:20.420Z,11.81
2023-03-31T22:52:47.593Z,11.73
2023-03-31T22:55:14.916Z,11.91
2023-03-31T22:57:42.617Z,11.88
2023-03-31T23:00:10.669Z,11.86
2023-03-31T23:02:38.011Z,11.95
2023-03-31T23:05:06.265Z,11.60
2023-03-31T23:07:33.451Z,11.64
2023-03-31T23:10:00.701Z,11.62
2023-03-31T23:12:28.520Z,11.63
2023-03-31T23:14:56.111Z,11.74
2023-03-31T23:17:23.556Z,11.78
2023-03-31T23:19:51.344Z,11.87
2023-03-31T23:22:19.052Z,11.91
2023-03-31T23:24:48.759Z,11.58
2023-03-31T23:27:16.113Z,11.78
2023-03-31T23:29:43.985Z,11.62
2023-03-31T23:32:11.623Z,11.60
2023-03-31T23:34:42.248Z,11.62
2023-03-31T23:37:10.722Z,11.64
2023-03-31T23:39:38.879Z,11.79
2023-03-31T23:42:07.351Z,11.69
2023-03-31T23:44:37.196Z,11.73
2023-03-31T23:47:05.567Z,11.66
2023-03-31T23:49:33.408Z,11.92
2023-03-31T23:52:01.308Z,11.96
2023-03-31T23:54:28.956Z,11.97
2023-03-31T23:56:56.354Z,12.04
2023-03-31T23:59:23.755Z,11.90
